sensor_id;sensor_type;location;lat;lon;timestamp;temperature;humidity
70807;DHT22;58882;52.170;5.386;2022-12-18T00:01:22;12.10;41.60
70807;DHT22;58882;52.170;5.386;2022-12-18T00:04:22;12.10;41.60
70807;DHT22;58882;52.170;5.386;2022-12-18T00:07:03;12.20;41.80
70807;DHT22;58882;52.170;5.386;2022-12-18T00:09:50;12.30;41.80
70807;DHT22;58882;52.170;5.386;2022-12-18T00:12:30;12.30;41.70
70807;DHT22;58882;52.170;5.386;2022-12-18T00:15:17;12.30;41.50
70807;DHT22;58882;52.170;5.386;2022-12-18T00:17:57;12.30;41.40
70807;DHT22;58882;52.170;5.386;2022-12-18T00:20:44;12.40;41.50
70807;DHT22;58882;52.170;5.386;2022-12-18T00:23:24;12.40;41.50
70807;DHT22;58882;52.170;5.386;2022-12-18T00:26:15;12.40;41.60
70807;DHT22;58882;52.170;5.386;2022-12-18T00:28:59;12.40;41.90
70807;DHT22;58882;52.170;5.386;2022-12-18T00:31:49;12.40;41.70
70807;DHT22;58882;52.170;5.386;2022-12-18T00:34:29;12.40;41.70
70807;DHT22;58882;52.170;5.386;2022-12-18T00:37:16;12.50;41.70
70807;DHT22;58882;52.170;5.386;2022-12-18T00:39:56;12.50;41.80
70807;DHT22;58882;52.170;5.386;2022-12-18T00:42:43;12.50;41.80
70807;DHT22;58882;52.170;5.386;2022-12-18T00:45:35;12.50;42.00
70807;DHT22;58882;52.170;5.386;2022-12-18T00:48:22;12.50;41.80
70807;DHT22;58882;52.170;5.386;2022-12-18T00:51:02;12.50;41.80
70807;DHT22;58882;52.170;5.386;2022-12-18T00:53:49;12.60;41.80
70807;DHT22;58882;52.170;5.386;2022-12-18T00:56:31;12.60;41.90
70807;DHT22;58882;52.170;5.386;2022-12-18T00:59:28;12.60;41.90
70807;DHT22;58882;52.170;5.386;2022-12-18T01:02:10;12.60;42.10
70807;DHT22;58882;52.170;5.386;2022-12-18T01:04:57;12.70;42.10
70807;DHT22;58882;52.170;5.386;2022-12-18T01:07:37;12.60;42.00
70807;DHT22;58882;52.170;5.386;2022-12-18T01:10:32;12.70;42.00
70807;DHT22;58882;52.170;5.386;2022-12-18T01:13:19;12.70;42.00
70807;DHT22;58882;52.170;5.386;2022-12-18T01:15:59;12.60;42.00
70807;DHT22;58882;52.170;5.386;2022-12-18T01:18:46;12.70;42.00
70807;DHT22;58882;52.170;5.386;2022-12-18T01:21:27;12.70;41.90
70807;DHT22;58882;52.170;5.386;2022-12-18T01:24:21;12.70;41.90
70807;DHT22;58882;52.170;5.386;2022-12-18T01:26:54;12.70;42.00
70807;DHT22;58882;52.170;5.386;2022-12-18T01:29:49;12.70;42.10
70807;DHT22;58882;52.170;5.386;2022-12-18T01:32:30;12.70;42.10
70807;DHT22;58882;52.170;5.386;2022-12-18T01:35:24;12.70;41.90
70807;DHT22;58882;52.170;5.386;2022-12-18T01:38:04;12.70;42.00
70807;DHT22;58882;52.170;5.386;2022-12-18T01:40:57;12.70;42.00
70807;DHT22;58882;52.170;5.386;2022-12-18T01:44:00;12.70;41.90
70807;DHT22;58882;52.170;5.386;2022-12-18T01:46:55;12.70;41.80
70807;DHT22;58882;52.170;5.386;2022-12-18T01:49:35;12.70;41.50
70807;DHT22;58882;52.170;5.386;2022-12-18T01:52:22;12.80;41.60
70807;DHT22;58882;52.170;5.386;2022-12-18T01:54:57;12.70;41.60
70807;DHT22;58882;52.170;5.386;2022-12-18T01:57:55;12.70;41.60
70807;DHT22;58882;52.170;5.386;2022-12-18T02:00:36;12.70;41.60
70807;DHT22;58882;52.170;5.386;2022-12-18T02:03:25;12.80;41.70
70807;DHT22;58882;52.170;5.386;2022-12-18T02:06:26;12.70;41.80
70807;DHT22;58882;52.170;5.386;2022-12-18T02:09:23;12.80;41.70
70807;DHT22;58882;52.170;5.386;2022-12-18T02:18:28;12.80;41.90
70807;DHT22;58882;52.170;5.386;2022-12-18T02:21:57;12.80;41.80
70807;DHT22;58882;52.170;5.386;2022-12-18T02:28:13;12.80;41.80
70807;DHT22;58882;52.170;5.386;2022-12-18T02:31:00;12.80;42.00
70807;DHT22;58882;52.170;5.386;2022-12-18T02:33:50;12.80;41.90
70807;DHT22;58882;52.170;5.386;2022-12-18T02:36:38;12.80;41.80
70807;DHT22;58882;52.170;5.386;2022-12-18T02:39:35;12.80;41.80
70807;DHT22;58882;52.170;5.386;2022-12-18T02:42:16;12.80;41.80
70807;DHT22;58882;52.170;5.386;2022-12-18T02:45:04;12.80;41.80
70807;DHT22;58882;52.170;5.386;2022-12-18T02:47:43;12.80;41.80
70807;DHT22;58882;52.170;5.386;2022-12-18T02:50:45;12.80;41.80
70807;DHT22;58882;52.170;5.386;2022-12-18T02:53:33;12.80;41.80
70807;DHT22;58882;52.170;5.386;2022-12-18T02:56:37;12.80;41.80
70807;DHT22;58882;52.170;5.386;2022-12-18T02:59:24;12.80;42.80
70807;DHT22;58882;52.170;5.386;2022-12-18T03:08:29;12.80;41.70
70807;DHT22;58882;52.170;5.386;2022-12-18T03:11:10;12.80;41.90
70807;DHT22;58882;52.170;5.386;2022-12-18T03:14:25;12.80;41.90
70807;DHT22;58882;52.170;5.386;2022-12-18T03:17:05;12.80;41.80
70807;DHT22;58882;52.170;5.386;2022-12-18T03:20:06;12.80;41.80
70807;DHT22;58882;52.170;5.386;2022-12-18T03:22:51;12.80;41.90
70807;DHT22;58882;52.170;5.386;2022-12-18T03:25:42;12.80;41.90
70807;DHT22;58882;52.170;5.386;2022-12-18T03:28:28;12.80;41.90
70807;DHT22;58882;52.170;5.386;2022-12-18T03:31:19;12.80;42.00
70807;DHT22;58882;52.170;5.386;2022-12-18T03:34:19;12.80;42.00
70807;DHT22;58882;52.170;5.386;2022-12-18T03:37:05;12.80;42.00
70807;DHT22;58882;52.170;5.386;2022-12-18T03:39:53;12.90;41.90
70807;DHT22;58882;52.170;5.386;2022-12-18T03:42:49;12.80;41.80
70807;DHT22;58882;52.170;5.386;2022-12-18T03:45:52;12.80;41.70
70807;DHT22;58882;52.170;5.386;2022-12-18T03:48:41;12.80;41.60
70807;DHT22;58882;52.170;5.386;2022-12-18T03:51:48;12.80;41.50
70807;DHT22;58882;52.170;5.386;2022-12-18T03:54:39;12.80;41.50
70807;DHT22;58882;52.170;5.386;2022-12-18T03:57:33;12.80;41.40
70807;DHT22;58882;52.170;5.386;2022-12-18T04:00:12;12.80;41.60
70807;DHT22;58882;52.170;5.386;2022-12-18T04:03:13;12.80;41.60
70807;DHT22;58882;52.170;5.386;2022-12-18T04:05:50;12.80;41.60
70807;DHT22;58882;52.170;5.386;2022-12-18T04:08:46;12.80;41.70
70807;DHT22;58882;52.170;5.386;2022-12-18T04:11:29;12.80;41.70
70807;DHT22;58882;52.170;5.386;2022-12-18T04:14:22;12.80;41.80
70807;DHT22;58882;52.170;5.386;2022-12-18T04:17:06;12.80;41.80
70807;DHT22;58882;52.170;5.386;2022-12-18T04:19:54;12.80;41.70
70807;DHT22;58882;52.170;5.386;2022-12-18T04:22:29;12.70;41.70
70807;DHT22;58882;52.170;5.386;2022-12-18T04:25:25;12.70;41.60
70807;DHT22;58882;52.170;5.386;2022-12-18T04:28:05;12.70;41.70
70807;DHT22;58882;52.170;5.386;2022-12-18T04:30:52;12.70;41.70
70807;DHT22;58882;52.170;5.386;2022-12-18T04:33:39;12.70;41.50
70807;DHT22;58882;52.170;5.386;2022-12-18T04:36:19;12.70;42.60
70807;DHT22;58882;52.170;5.386;2022-12-18T04:39:05;12.70;41.60
70807;DHT22;58882;52.170;5.386;2022-12-18T04:41:40;12.70;41.60
70807;DHT22;58882;52.170;5.386;2022-12-18T04:44:33;12.70;41.60
70807;DHT22;58882;52.170;5.386;2022-12-18T04:47:28;12.70;41.70
70807;DHT22;58882;52.170;5.386;2022-12-18T04:50:08;12.70;41.60
70807;DHT22;58882;52.170;5.386;2022-12-18T04:52:55;12.60;41.50
70807;DHT22;58882;52.170;5.386;2022-12-18T04:55:42;12.60;41.60
70807;DHT22;58882;52.170;5.386;2022-12-18T04:58:37;12.60;41.60
70807;DHT22;58882;52.170;5.386;2022-12-18T05:01:14;12.60;41.60
70807;DHT22;58882;52.170;5.386;2022-12-18T05:04:14;12.60;41.60
70807;DHT22;58882;52.170;5.386;2022-12-18T05:07:08;12.60;41.50
70807;DHT22;58882;52.170;5.386;2022-12-18T05:09:41;12.50;41.50
70807;DHT22;58882;52.170;5.386;2022-12-18T05:12:35;12.60;41.50
70807;DHT22;58882;52.170;5.386;2022-12-18T05:15:32;12.60;41.50
70807;DHT22;58882;52.170;5.386;2022-12-18T05:18:26;12.60;41.40
70807;DHT22;58882;52.170;5.386;2022-12-18T05:21:00;12.60;42.40
70807;DHT22;58882;52.170;5.386;2022-12-18T05:23:54;12.60;41.60
70807;DHT22;58882;52.170;5.386;2022-12-18T05:26:34;12.60;41.50
70807;DHT22;58882;52.170;5.386;2022-12-18T05:29:21;12.60;41.40
70807;DHT22;58882;52.170;5.386;2022-12-18T05:32:01;12.60;41.50
70807;DHT22;58882;52.170;5.386;2022-12-18T05:34:48;12.60;41.40
70807;DHT22;58882;52.170;5.386;2022-12-18T05:37:28;12.50;41.40
70807;DHT22;58882;52.170;5.386;2022-12-18T05:40:22;12.60;41.40
70807;DHT22;58882;52.170;5.386;2022-12-18T05:43:02;12.50;41.20
70807;DHT22;58882;52.170;5.386;2022-12-18T05:45:49;12.60;41.30
70807;DHT22;58882;52.170;5.386;2022-12-18T05:48:29;12.60;41.40
70807;DHT22;58882;52.170;5.386;2022-12-18T05:51:18;12.60;41.30
70807;DHT22;58882;52.170;5.386;2022-12-18T05:54:06;12.50;41.20
70807;DHT22;58882;52.170;5.386;2022-12-18T05:57:00;12.60;42.30
70807;DHT22;58882;52.170;5.386;2022-12-18T05:59:40;12.60;41.30
70807;DHT22;58882;52.170;5.386;2022-12-18T06:02:47;12.60;41.30
70807;DHT22;58882;52.170;5.386;2022-12-18T06:05:27;12.60;41.30
70807;DHT22;58882;52.170;5.386;2022-12-18T06:08:22;12.60;41.20
70807;DHT22;58882;52.170;5.386;2022-12-18T06:11:02;12.60;41.20
70807;DHT22;58882;52.170;5.386;2022-12-18T06:13:54;12.60;41.30
70807;DHT22;58882;52.170;5.386;2022-12-18T06:16:34;12.60;41.30
70807;DHT22;58882;52.170;5.386;2022-12-18T06:19:21;12.60;41.30
70807;DHT22;58882;52.170;5.386;2022-12-18T06:22:01;12.60;41.20
70807;DHT22;58882;52.170;5.386;2022-12-18T06:24:48;12.60;41.20
70807;DHT22;58882;52.170;5.386;2022-12-18T06:27:28;12.60;41.30
70807;DHT22;58882;52.170;5.386;2022-12-18T06:30:22;12.60;41.30
70807;DHT22;58882;52.170;5.386;2022-12-18T06:32:55;12.60;41.30
70807;DHT22;58882;52.170;5.386;2022-12-18T06:35:49;12.60;41.20
70807;DHT22;58882;52.170;5.386;2022-12-18T06:38:34;12.70;41.20
70807;DHT22;58882;52.170;5.386;2022-12-18T06:41:22;12.70;41.40
70807;DHT22;58882;52.170;5.386;2022-12-18T06:44:02;12.60;41.30
70807;DHT22;58882;52.170;5.386;2022-12-18T06:46:50;12.60;41.10
70807;DHT22;58882;52.170;5.386;2022-12-18T06:49:23;12.70;41.90
70807;DHT22;58882;52.170;5.386;2022-12-18T06:52:17;12.60;41.80
70807;DHT22;58882;52.170;5.386;2022-12-18T06:55:04;12.60;40.70
70807;DHT22;58882;52.170;5.386;2022-12-18T06:57:59;12.60;40.70
70807;DHT22;58882;52.170;5.386;2022-12-18T07:00:40;12.60;40.60
70807;DHT22;58882;52.170;5.386;2022-12-18T07:03:27;12.60;40.50
70807;DHT22;58882;52.170;5.386;2022-12-18T07:06:13;12.60;40.40
70807;DHT22;58882;52.170;5.386;2022-12-18T07:09:01;12.60;40.30
70807;DHT22;58882;52.170;5.386;2022-12-18T07:11:41;12.60;40.20
70807;DHT22;58882;52.170;5.386;2022-12-18T07:14:35;12.50;40.10
70807;DHT22;58882;52.170;5.386;2022-12-18T07:17:08;12.60;40.30
70807;DHT22;58882;52.170;5.386;2022-12-18T07:20:02;12.60;40.90
70807;DHT22;58882;52.170;5.386;2022-12-18T07:22:42;12.50;40.00
70807;DHT22;58882;52.170;5.386;2022-12-18T07:25:36;12.60;40.00
70807;DHT22;58882;52.170;5.386;2022-12-18T07:28:10;12.60;39.90
70807;DHT22;58882;52.170;5.386;2022-12-18T07:31:09;12.60;39.60
70807;DHT22;58882;52.170;5.386;2022-12-18T07:34:04;12.50;39.40
70807;DHT22;58882;52.170;5.386;2022-12-18T07:36:37;12.50;39.20
70807;DHT22;58882;52.170;5.386;2022-12-18T07:39:31;12.50;39.20
70807;DHT22;58882;52.170;5.386;2022-12-18T07:42:11;12.50;39.00
70807;DHT22;58882;52.170;5.386;2022-12-18T07:45:17;12.50;38.90
70807;DHT22;58882;52.170;5.386;2022-12-18T07:47:57;12.50;38.70
70807;DHT22;58882;52.170;5.386;2022-12-18T07:50:51;12.50;38.60
70807;DHT22;58882;52.170;5.386;2022-12-18T07:53:25;12.50;38.50
70807;DHT22;58882;52.170;5.386;2022-12-18T07:56:20;12.50;38.50
70807;DHT22;58882;52.170;5.386;2022-12-18T07:59:02;12.40;38.30
70807;DHT22;58882;52.170;5.386;2022-12-18T08:01:49;12.50;38.30
70807;DHT22;58882;52.170;5.386;2022-12-18T08:04:29;12.40;38.10
70807;DHT22;58882;52.170;5.386;2022-12-18T08:07:16;12.50;38.10
70807;DHT22;58882;52.170;5.386;2022-12-18T08:09:56;12.50;38.10
70807;DHT22;58882;52.170;5.386;2022-12-18T08:12:43;12.50;37.90
70807;DHT22;58882;52.170;5.386;2022-12-18T08:15:23;12.50;37.70
70807;DHT22;58882;52.170;5.386;2022-12-18T08:18:10;12.50;37.40
70807;DHT22;58882;52.170;5.386;2022-12-18T08:20:50;12.60;37.20
70807;DHT22;58882;52.170;5.386;2022-12-18T08:23:37;12.60;37.00
70807;DHT22;58882;52.170;5.386;2022-12-18T08:26:17;12.60;36.80
70807;DHT22;58882;52.170;5.386;2022-12-18T08:29:04;12.60;36.60
70807;DHT22;58882;52.170;5.386;2022-12-18T08:31:44;12.60;36.40
70807;DHT22;58882;52.170;5.386;2022-12-18T08:34:38;12.70;36.30
70807;DHT22;58882;52.170;5.386;2022-12-18T08:37:11;12.70;36.10
70807;DHT22;58882;52.170;5.386;2022-12-18T08:40:05;12.70;36.00
70807;DHT22;58882;52.170;5.386;2022-12-18T08:42:39;12.70;35.80
70807;DHT22;58882;52.170;5.386;2022-12-18T08:45:52;12.80;35.80
70807;DHT22;58882;52.170;5.386;2022-12-18T08:48:25;12.80;35.50
70807;DHT22;58882;52.170;5.386;2022-12-18T08:51:19;12.80;35.50
70807;DHT22;58882;52.170;5.386;2022-12-18T08:54:08;12.80;35.20
70807;DHT22;58882;52.170;5.386;2022-12-18T08:57:04;12.90;35.10
70807;DHT22;58882;52.170;5.386;2022-12-18T08:59:44;12.90;35.00
70807;DHT22;58882;52.170;5.386;2022-12-18T09:02:38;13.00;35.40
70807;DHT22;58882;52.170;5.386;2022-12-18T09:05:12;13.10;35.40
70807;DHT22;58882;52.170;5.386;2022-12-18T09:08:06;13.20;35.30
70807;DHT22;58882;52.170;5.386;2022-12-18T09:10:49;13.30;35.00
70807;DHT22;58882;52.170;5.386;2022-12-18T09:13:36;13.50;34.80
70807;DHT22;58882;52.170;5.386;2022-12-18T09:16:10;13.60;34.60
70807;DHT22;58882;52.170;5.386;2022-12-18T09:19:10;13.70;34.50
70807;DHT22;58882;52.170;5.386;2022-12-18T09:21:50;13.80;34.00
70807;DHT22;58882;52.170;5.386;2022-12-18T09:24:37;13.90;34.20
70807;DHT22;58882;52.170;5.386;2022-12-18T09:27:17;14.00;33.50
70807;DHT22;58882;52.170;5.386;2022-12-18T09:30:04;14.10;33.40
70807;DHT22;58882;52.170;5.386;2022-12-18T09:32:45;14.10;33.20
70807;DHT22;58882;52.170;5.386;2022-12-18T09:35:32;14.20;33.10
70807;DHT22;58882;52.170;5.386;2022-12-18T09:38:19;14.20;32.90
70807;DHT22;58882;52.170;5.386;2022-12-18T09:47:32;14.30;32.50
70807;DHT22;58882;52.170;5.386;2022-12-18T09:50:25;14.40;32.40
70807;DHT22;58882;52.170;5.386;2022-12-18T09:53:24;14.40;32.30
70807;DHT22;58882;52.170;5.386;2022-12-18T09:56:01;14.50;32.20
70807;DHT22;58882;52.170;5.386;2022-12-18T09:58:59;14.50;32.20
70807;DHT22;58882;52.170;5.386;2022-12-18T10:01:40;14.50;32.00
70807;DHT22;58882;52.170;5.386;2022-12-18T10:04:34;14.50;32.00
70807;DHT22;58882;52.170;5.386;2022-12-18T10:07:19;14.50;31.90
70807;DHT22;58882;52.170;5.386;2022-12-18T10:10:22;14.60;31.90
70807;DHT22;58882;52.170;5.386;2022-12-18T10:13:07;14.50;31.90
70807;DHT22;58882;52.170;5.386;2022-12-18T10:27:46;14.60;32.00
70807;DHT22;58882;52.170;5.386;2022-12-18T10:30:26;14.60;32.00
70807;DHT22;58882;52.170;5.386;2022-12-18T10:33:19;14.60;32.10
70807;DHT22;58882;52.170;5.386;2022-12-18T10:35:59;14.60;32.10
70807;DHT22;58882;52.170;5.386;2022-12-18T10:38:46;14.60;32.10
70807;DHT22;58882;52.170;5.386;2022-12-18T10:41:26;14.60;32.00
70807;DHT22;58882;52.170;5.386;2022-12-18T10:44:22;14.60;32.10
70807;DHT22;58882;52.170;5.386;2022-12-18T10:47:05;14.60;32.10
70807;DHT22;58882;52.170;5.386;2022-12-18T10:49:54;14.60;32.10
70807;DHT22;58882;52.170;5.386;2022-12-18T10:52:35;14.60;32.10
70807;DHT22;58882;52.170;5.386;2022-12-18T10:55:37;14.60;32.20
70807;DHT22;58882;52.170;5.386;2022-12-18T10:58:34;14.60;32.00
70807;DHT22;58882;52.170;5.386;2022-12-18T11:01:21;14.60;32.10
70807;DHT22;58882;52.170;5.386;2022-12-18T11:04:08;14.60;32.00
70807;DHT22;58882;52.170;5.386;2022-12-18T11:07:07;14.60;32.00
70807;DHT22;58882;52.170;5.386;2022-12-18T11:09:41;14.60;32.00
70807;DHT22;58882;52.170;5.386;2022-12-18T11:12:35;14.60;32.00
70807;DHT22;58882;52.170;5.386;2022-12-18T11:15:36;14.60;32.00
70807;DHT22;58882;52.170;5.386;2022-12-18T11:18:34;14.60;32.00
70807;DHT22;58882;52.170;5.386;2022-12-18T11:21:14;14.60;32.00
70807;DHT22;58882;52.170;5.386;2022-12-18T11:24:01;14.70;32.10
70807;DHT22;58882;52.170;5.386;2022-12-18T11:26:41;14.60;32.00
70807;DHT22;58882;52.170;5.386;2022-12-18T11:29:39;14.70;32.00
70807;DHT22;58882;52.170;5.386;2022-12-18T11:32:36;14.60;31.90
70807;DHT22;58882;52.170;5.386;2022-12-18T11:38:21;14.60;31.90
70807;DHT22;58882;52.170;5.386;2022-12-18T11:41:37;14.70;32.00
70807;DHT22;58882;52.170;5.386;2022-12-18T11:45:30;14.70;31.90
70807;DHT22;58882;52.170;5.386;2022-12-18T11:48:18;14.70;31.80
70807;DHT22;58882;52.170;5.386;2022-12-18T11:51:04;14.70;31.80
70807;DHT22;58882;52.170;5.386;2022-12-18T11:53:52;14.70;31.80
70807;DHT22;58882;52.170;5.386;2022-12-18T11:56:47;14.70;31.80
70807;DHT22;58882;52.170;5.386;2022-12-18T12:02:54;14.80;31.80
70807;DHT22;58882;52.170;5.386;2022-12-18T12:18:01;14.80;31.60
70807;DHT22;58882;52.170;5.386;2022-12-18T12:21:12;14.80;31.60
70807;DHT22;58882;52.170;5.386;2022-12-18T12:24:26;14.80;31.60
70807;DHT22;58882;52.170;5.386;2022-12-18T12:39:41;14.80;31.50
70807;DHT22;58882;52.170;5.386;2022-12-18T12:42:42;14.80;31.60
70807;DHT22;58882;52.170;5.386;2022-12-18T12:48:51;14.80;31.60
70807;DHT22;58882;52.170;5.386;2022-12-18T12:51:39;14.80;31.50
70807;DHT22;58882;52.170;5.386;2022-12-18T12:54:28;14.80;31.50
70807;DHT22;58882;52.170;5.386;2022-12-18T12:57:17;14.80;31.40
70807;DHT22;58882;52.170;5.386;2022-12-18T13:00:16;14.80;31.40
70807;DHT22;58882;52.170;5.386;2022-12-18T13:03:28;14.80;31.50
70807;DHT22;58882;52.170;5.386;2022-12-18T13:09:17;14.80;31.50
70807;DHT22;58882;52.170;5.386;2022-12-18T13:12:09;14.80;31.60
70807;DHT22;58882;52.170;5.386;2022-12-18T13:15:33;14.80;31.50
70807;DHT22;58882;52.170;5.386;2022-12-18T13:18:29;14.80;31.40
70807;DHT22;58882;52.170;5.386;2022-12-18T13:21:13;14.80;31.40
70807;DHT22;58882;52.170;5.386;2022-12-18T13:24:22;14.90;31.50
70807;DHT22;58882;52.170;5.386;2022-12-18T13:26:56;14.80;31.40
70807;DHT22;58882;52.170;5.386;2022-12-18T13:29:50;14.90;31.40
70807;DHT22;58882;52.170;5.386;2022-12-18T13:32:44;14.80;31.40
70807;DHT22;58882;52.170;5.386;2022-12-18T13:38:34;14.90;31.40
70807;DHT22;58882;52.170;5.386;2022-12-18T13:47:30;14.80;31.40
70807;DHT22;58882;52.170;5.386;2022-12-18T13:50:26;14.80;31.30
70807;DHT22;58882;52.170;5.386;2022-12-18T13:53:20;14.80;31.40
70807;DHT22;58882;52.170;5.386;2022-12-18T13:56:08;14.80;31.40
70807;DHT22;58882;52.170;5.386;2022-12-18T13:59:45;14.80;31.40
70807;DHT22;58882;52.170;5.386;2022-12-18T14:02:44;14.80;32.40
70807;DHT22;58882;52.170;5.386;2022-12-18T14:05:27;14.80;31.20
70807;DHT22;58882;52.170;5.386;2022-12-18T14:08:15;14.80;31.30
70807;DHT22;58882;52.170;5.386;2022-12-18T14:11:00;14.80;31.20
70807;DHT22;58882;52.170;5.386;2022-12-18T14:13:50;14.80;31.30
70807;DHT22;58882;52.170;5.386;2022-12-18T14:16:24;14.80;31.20
70807;DHT22;58882;52.170;5.386;2022-12-18T14:19:18;14.80;31.20
70807;DHT22;58882;52.170;5.386;2022-12-18T14:21:58;14.80;31.20
70807;DHT22;58882;52.170;5.386;2022-12-18T14:24:45;14.80;31.20
70807;DHT22;58882;52.170;5.386;2022-12-18T14:27:24;14.80;31.20
70807;DHT22;58882;52.170;5.386;2022-12-18T14:30:30;14.80;31.20
70807;DHT22;58882;52.170;5.386;2022-12-18T14:33:27;14.80;31.20
70807;DHT22;58882;52.170;5.386;2022-12-18T14:36:03;14.80;31.20
70807;DHT22;58882;52.170;5.386;2022-12-18T14:38:58;14.80;31.20
70807;DHT22;58882;52.170;5.386;2022-12-18T14:41:32;14.80;31.20
70807;DHT22;58882;52.170;5.386;2022-12-18T14:44:26;14.80;31.20
70807;DHT22;58882;52.170;5.386;2022-12-18T14:47:15;14.80;31.10
70807;DHT22;58882;52.170;5.386;2022-12-18T14:50:14;14.80;31.20
70807;DHT22;58882;52.170;5.386;2022-12-18T14:52:54;14.80;31.10
70807;DHT22;58882;52.170;5.386;2022-12-18T14:55:46;14.80;31.10
70807;DHT22;58882;52.170;5.386;2022-12-18T14:58:28;14.80;31.10
70807;DHT22;58882;52.170;5.386;2022-12-18T15:01:37;14.80;31.10
70807;DHT22;58882;52.170;5.386;2022-12-18T15:04:48;14.80;31.00
70807;DHT22;58882;52.170;5.386;2022-12-18T15:07:55;14.80;32.10
70807;DHT22;58882;52.170;5.386;2022-12-18T15:10:46;14.70;31.00
70807;DHT22;58882;52.170;5.386;2022-12-18T15:13:34;14.80;31.20
70807;DHT22;58882;52.170;5.386;2022-12-18T15:16:14;14.80;31.30
70807;DHT22;58882;52.170;5.386;2022-12-18T15:19:08;14.80;31.30
70807;DHT22;58882;52.170;5.386;2022-12-18T15:21:48;14.70;31.10
70807;DHT22;58882;52.170;5.386;2022-12-18T15:24:43;14.80;31.20
70807;DHT22;58882;52.170;5.386;2022-12-18T15:27:44;14.70;31.00
70807;DHT22;58882;52.170;5.386;2022-12-18T15:31:01;14.70;31.00
70807;DHT22;58882;52.170;5.386;2022-12-18T15:33:37;14.70;31.00
70807;DHT22;58882;52.170;5.386;2022-12-18T15:36:36;14.70;31.00
70807;DHT22;58882;52.170;5.386;2022-12-18T15:39:16;14.70;32.00
70807;DHT22;58882;52.170;5.386;2022-12-18T15:42:03;14.70;31.00
70807;DHT22;58882;52.170;5.386;2022-12-18T15:45:02;14.70;30.90
70807;DHT22;58882;52.170;5.386;2022-12-18T15:47:49;14.70;30.90
70807;DHT22;58882;52.170;5.386;2022-12-18T15:50:29;14.70;30.90
70807;DHT22;58882;52.170;5.386;2022-12-18T15:53:16;14.70;31.00
70807;DHT22;58882;52.170;5.386;2022-12-18T15:55:57;14.70;30.90
70807;DHT22;58882;52.170;5.386;2022-12-18T15:59:14;14.70;30.90
70807;DHT22;58882;52.170;5.386;2022-12-18T16:01:55;14.70;30.90
70807;DHT22;58882;52.170;5.386;2022-12-18T16:04:50;14.70;30.90
70807;DHT22;58882;52.170;5.386;2022-12-18T16:07:31;14.70;30.90
70807;DHT22;58882;52.170;5.386;2022-12-18T16:10:18;14.70;30.90
70807;DHT22;58882;52.170;5.386;2022-12-18T16:12:58;14.70;30.90
70807;DHT22;58882;52.170;5.386;2022-12-18T16:15:45;14.70;30.90
70807;DHT22;58882;52.170;5.386;2022-12-18T16:18:25;14.70;30.80
70807;DHT22;58882;52.170;5.386;2022-12-18T16:21:12;14.70;31.80
70807;DHT22;58882;52.170;5.386;2022-12-18T16:23:52;14.70;30.80
70807;DHT22;58882;52.170;5.386;2022-12-18T16:26:46;14.70;30.80
70807;DHT22;58882;52.170;5.386;2022-12-18T16:29:27;14.70;30.80
70807;DHT22;58882;52.170;5.386;2022-12-18T16:32:17;14.70;30.80
70807;DHT22;58882;52.170;5.386;2022-12-18T16:35:00;14.70;30.70
70807;DHT22;58882;52.170;5.386;2022-12-18T16:37:47;14.70;30.80
70807;DHT22;58882;52.170;5.386;2022-12-18T16:40:27;14.70;30.70
70807;DHT22;58882;52.170;5.386;2022-12-18T16:43:34;14.70;30.80
70807;DHT22;58882;52.170;5.386;2022-12-18T16:46:14;14.70;30.70
70807;DHT22;58882;52.170;5.386;2022-12-18T16:49:08;14.70;30.80
70807;DHT22;58882;52.170;5.386;2022-12-18T16:51:43;14.70;30.70
70807;DHT22;58882;52.170;5.386;2022-12-18T16:54:37;14.70;30.70
70807;DHT22;58882;52.170;5.386;2022-12-18T16:57:15;14.70;30.70
70807;DHT22;58882;52.170;5.386;2022-12-18T17:00:10;14.70;30.70
70807;DHT22;58882;52.170;5.386;2022-12-18T17:02:51;14.70;30.70
70807;DHT22;58882;52.170;5.386;2022-12-18T17:05:38;14.70;30.70
70807;DHT22;58882;52.170;5.386;2022-12-18T17:08:25;14.70;30.70
70807;DHT22;58882;52.170;5.386;2022-12-18T17:11:12;14.70;30.70
70807;DHT22;58882;52.170;5.386;2022-12-18T17:13:52;14.70;30.70
70807;DHT22;58882;52.170;5.386;2022-12-18T17:16:39;14.70;30.70
70807;DHT22;58882;52.170;5.386;2022-12-18T17:19:39;14.70;30.70
70807;DHT22;58882;52.170;5.386;2022-12-18T17:22:33;14.70;30.70
70807;DHT22;58882;52.170;5.386;2022-12-18T17:25:13;14.60;30.60
70807;DHT22;58882;52.170;5.386;2022-12-18T17:28:00;14.70;30.70
70807;DHT22;58882;52.170;5.386;2022-12-18T17:30:33;14.70;30.70
70807;DHT22;58882;52.170;5.386;2022-12-18T17:33:27;14.70;30.70
70807;DHT22;58882;52.170;5.386;2022-12-18T17:36:00;14.70;30.70
70807;DHT22;58882;52.170;5.386;2022-12-18T17:38:55;14.70;30.70
70807;DHT22;58882;52.170;5.386;2022-12-18T17:41:36;14.70;30.60
70807;DHT22;58882;52.170;5.386;2022-12-18T17:44:23;14.70;30.60
70807;DHT22;58882;52.170;5.386;2022-12-18T17:47:03;14.70;30.60
70807;DHT22;58882;52.170;5.386;2022-12-18T17:49:51;14.70;30.70
70807;DHT22;58882;52.170;5.386;2022-12-18T17:52:32;14.70;30.60
70807;DHT22;58882;52.170;5.386;2022-12-18T17:55:19;14.70;30.60
70807;DHT22;58882;52.170;5.386;2022-12-18T17:57:59;14.70;30.60
70807;DHT22;58882;52.170;5.386;2022-12-18T18:00:46;14.70;30.70
70807;DHT22;58882;52.170;5.386;2022-12-18T18:03:26;14.70;30.70
70807;DHT22;58882;52.170;5.386;2022-12-18T18:06:13;14.70;30.70
70807;DHT22;58882;52.170;5.386;2022-12-18T18:08:54;14.70;30.60
70807;DHT22;58882;52.170;5.386;2022-12-18T18:11:41;14.70;30.70
70807;DHT22;58882;52.170;5.386;2022-12-18T18:14:40;14.70;30.70
70807;DHT22;58882;52.170;5.386;2022-12-18T18:17:27;14.70;31.40
70807;DHT22;58882;52.170;5.386;2022-12-18T18:20:07;14.70;32.10
70807;DHT22;58882;52.170;5.386;2022-12-18T18:23:02;14.70;32.00
70807;DHT22;58882;52.170;5.386;2022-12-18T18:25:35;14.60;32.10
70807;DHT22;58882;52.170;5.386;2022-12-18T18:28:32;14.60;32.50
70807;DHT22;58882;52.170;5.386;2022-12-18T18:31:12;14.50;32.80
70807;DHT22;58882;52.170;5.386;2022-12-18T18:34:00;14.50;34.10
70807;DHT22;58882;52.170;5.386;2022-12-18T18:36:40;14.40;33.30
70807;DHT22;58882;52.170;5.386;2022-12-18T18:39:28;14.40;34.60
70807;DHT22;58882;52.170;5.386;2022-12-18T18:42:09;14.40;33.90
70807;DHT22;58882;52.170;5.386;2022-12-18T18:44:56;14.40;34.10
70807;DHT22;58882;52.170;5.386;2022-12-18T18:47:36;14.30;34.40
70807;DHT22;58882;52.170;5.386;2022-12-18T18:50:23;14.30;34.70
70807;DHT22;58882;52.170;5.386;2022-12-18T18:53:03;14.20;34.90
70807;DHT22;58882;52.170;5.386;2022-12-18T18:55:58;14.20;34.90
70807;DHT22;58882;52.170;5.386;2022-12-18T18:59:12;14.20;35.00
70807;DHT22;58882;52.170;5.386;2022-12-18T19:01:55;14.20;35.40
70807;DHT22;58882;52.170;5.386;2022-12-18T19:04:49;14.20;35.60